TAF Text Data
IDs:
Format:
Raw Decoded Include METAR

Data at: 1342 UTC 10 Jul 2020

KATL 101339Z 1014/1118 32005KT P6SM SCT040
  FM101600 28006KT P6SM SCT050
  FM110200 30007KT P6SM FEW250
  FM111600 33012KT P6SM SKC